sensor_id;sensor_type;location;lat;lon;timestamp;pressure;altitude;pressure_sealevel;temperature;humidity
75650;BME280;64245;51.282;22.494;2023-03-01T00:01:25;100459.44;;;-6.21;97.87
75650;BME280;64245;51.282;22.494;2023-03-01T00:03:52;100457.75;;;-6.32;97.90
75650;BME280;64245;51.282;22.494;2023-03-01T00:06:18;100456.88;;;-6.32;98.62
75650;BME280;64245;51.282;22.494;2023-03-01T00:08:44;100442.09;;;-6.36;98.08
75650;BME280;64245;51.282;22.494;2023-03-01T00:11:14;100451.72;;;-6.41;98.71
75650;BME280;64245;51.282;22.494;2023-03-01T00:13:41;100467.31;;;-6.26;98.68
75650;BME280;64245;51.282;22.494;2023-03-01T00:16:09;100462.94;;;-6.21;98.46
75650;BME280;64245;51.282;22.494;2023-03-01T00:18:35;100455.22;;;-6.39;97.76
75650;BME280;64245;51.282;22.494;2023-03-01T00:21:01;100459.63;;;-6.47;97.80
75650;BME280;64245;51.282;22.494;2023-03-01T00:23:27;100458.81;;;-6.55;98.10
75650;BME280;64245;51.282;22.494;2023-03-01T00:25:53;100454.34;;;-6.40;98.39
75650;BME280;64245;51.282;22.494;2023-03-01T00:28:19;100456.00;;;-6.30;98.16
75650;BME280;64245;51.282;22.494;2023-03-01T00:30:45;100442.88;;;-6.28;98.76
75650;BME280;64245;51.282;22.494;2023-03-01T00:33:11;100430.78;;;-6.46;99.09
75650;BME280;64245;51.282;22.494;2023-03-01T00:35:37;100435.88;;;-6.24;98.80
75650;BME280;64245;51.282;22.494;2023-03-01T00:38:03;100433.38;;;-6.40;99.23
75650;BME280;64245;51.282;22.494;2023-03-01T00:40:32;100435.13;;;-6.40;98.31
75650;BME280;64245;51.282;22.494;2023-03-01T00:42:58;100428.16;;;-6.43;98.37
75650;BME280;64245;51.282;22.494;2023-03-01T00:45:24;100426.41;;;-6.42;99.04
75650;BME280;64245;51.282;22.494;2023-03-01T00:47:51;100422.13;;;-6.55;98.54
75650;BME280;64245;51.282;22.494;2023-03-01T00:50:17;100423.75;;;-6.36;98.93
75650;BME280;64245;51.282;22.494;2023-03-01T00:52:43;100420.31;;;-6.47;98.46
75650;BME280;64245;51.282;22.494;2023-03-01T00:55:10;100420.41;;;-6.56;98.89
75650;BME280;64245;51.282;22.494;2023-03-01T00:57:36;100423.03;;;-6.58;99.78
75650;BME280;64245;51.282;22.494;2023-03-01T01:00:03;100413.41;;;-6.56;99.42
75650;BME280;64245;51.282;22.494;2023-03-01T01:02:32;100416.75;;;-6.37;99.16
75650;BME280;64245;51.282;22.494;2023-03-01T01:04:58;100407.03;;;-6.26;98.35
75650;BME280;64245;51.282;22.494;2023-03-01T01:07:23;100404.56;;;-6.43;98.03
75650;BME280;64245;51.282;22.494;2023-03-01T01:09:49;100408.81;;;-6.30;98.10
75650;BME280;64245;51.282;22.494;2023-03-01T01:12:15;100404.59;;;-6.46;97.75
75650;BME280;64245;51.282;22.494;2023-03-01T01:14:40;100412.59;;;-6.67;98.69
75650;BME280;64245;51.282;22.494;2023-03-01T01:17:06;100410.78;;;-6.57;98.22
75650;BME280;64245;51.282;22.494;2023-03-01T01:19:32;100402.97;;;-6.64;97.96
75650;BME280;64245;51.282;22.494;2023-03-01T01:21:57;100413.44;;;-6.60;98.87
75650;BME280;64245;51.282;22.494;2023-03-01T01:24:23;100424.78;;;-6.63;98.97
75650;BME280;64245;51.282;22.494;2023-03-01T01:26:49;100418.69;;;-6.64;98.99
75650;BME280;64245;51.282;22.494;2023-03-01T01:29:14;100418.69;;;-6.64;98.75
75650;BME280;64245;51.282;22.494;2023-03-01T01:31:41;100410.66;;;-6.39;98.92
75650;BME280;64245;51.282;22.494;2023-03-01T01:34:09;100407.97;;;-6.33;98.32
75650;BME280;64245;51.282;22.494;2023-03-01T01:36:38;100408.97;;;-6.51;98.16
75650;BME280;64245;51.282;22.494;2023-03-01T01:39:03;100401.09;;;-6.49;98.31
75650;BME280;64245;51.282;22.494;2023-03-01T01:41:29;100418.66;;;-6.60;98.34
75650;BME280;64245;51.282;22.494;2023-03-01T01:44:20;100409.06;;;-6.60;97.51
75650;BME280;64245;51.282;22.494;2023-03-01T01:46:54;100405.59;;;-6.67;97.75
75650;BME280;64245;51.282;22.494;2023-03-01T01:49:36;100404.75;;;-6.69;98.53
75650;BME280;64245;51.282;22.494;2023-03-01T01:52:14;100407.38;;;-6.70;98.66
75650;BME280;64245;51.282;22.494;2023-03-01T01:54:46;100397.72;;;-6.64;98.33
75650;BME280;64245;51.282;22.494;2023-03-01T01:57:18;100396.91;;;-6.73;98.05
75650;BME280;64245;51.282;22.494;2023-03-01T01:59:50;100395.25;;;-6.85;97.80
75650;BME280;64245;51.282;22.494;2023-03-01T02:02:18;100357.72;;;-6.87;97.67
75650;BME280;64245;51.282;22.494;2023-03-01T02:04:44;100368.03;;;-6.64;98.10
75650;BME280;64245;51.282;22.494;2023-03-01T02:07:16;100383.88;;;-6.81;98.78
75650;BME280;64245;51.282;22.494;2023-03-01T02:09:46;100378.66;;;-6.85;99.23
75650;BME280;64245;51.282;22.494;2023-03-01T02:12:14;100375.19;;;-6.89;98.94
75650;BME280;64245;51.282;22.494;2023-03-01T02:14:40;100362.94;;;-6.82;99.14
75650;BME280;64245;51.282;22.494;2023-03-01T02:17:06;100353.16;;;-6.56;98.80
75650;BME280;64245;51.282;22.494;2023-03-01T02:19:55;100355.81;;;-6.64;98.33
75650;BME280;64245;51.282;22.494;2023-03-01T02:22:27;100356.84;;;-6.84;98.89
75650;BME280;64245;51.282;22.494;2023-03-01T02:25:00;100367.34;;;-6.90;99.12
75650;BME280;64245;51.282;22.494;2023-03-01T02:27:33;100366.59;;;-7.11;99.48
75650;BME280;64245;51.282;22.494;2023-03-01T02:30:02;100360.44;;;-6.98;98.94
75650;BME280;64245;51.282;22.494;2023-03-01T02:32:28;100368.19;;;-6.82;99.43
75650;BME280;64245;51.282;22.494;2023-03-01T02:34:55;100356.06;;;-6.94;99.85
75650;BME280;64245;51.282;22.494;2023-03-01T02:37:21;100348.22;;;-7.02;99.60
75650;BME280;64245;51.282;22.494;2023-03-01T02:39:53;100376.94;;;-6.91;98.37
75650;BME280;64245;51.282;22.494;2023-03-01T02:42:26;100376.13;;;-6.94;98.87
75650;BME280;64245;51.282;22.494;2023-03-01T02:44:54;100355.97;;;-6.86;98.73
75650;BME280;64245;51.282;22.494;2023-03-01T02:47:20;100361.31;;;-6.99;98.24
75650;BME280;64245;51.282;22.494;2023-03-01T02:49:46;100356.97;;;-7.04;98.77
75650;BME280;64245;51.282;22.494;2023-03-01T02:52:37;100358.63;;;-6.89;98.63
75650;BME280;64245;51.282;22.494;2023-03-01T02:55:12;100353.34;;;-6.85;99.20
75650;BME280;64245;51.282;22.494;2023-03-01T02:57:41;100351.72;;;-6.98;99.13
75650;BME280;64245;51.282;22.494;2023-03-01T03:00:17;100368.19;;;-6.87;99.03
75650;BME280;64245;51.282;22.494;2023-03-01T03:02:49;100365.66;;;-6.93;99.12
75650;BME280;64245;51.282;22.494;2023-03-01T03:05:21;100370.06;;;-7.06;99.04
75650;BME280;64245;51.282;22.494;2023-03-01T03:07:48;100356.81;;;-6.81;99.59
75650;BME280;64245;51.282;22.494;2023-03-01T03:10:23;100356.00;;;-6.88;98.93
75650;BME280;64245;51.282;22.494;2023-03-01T03:12:51;100358.63;;;-6.92;98.99
75650;BME280;64245;51.282;22.494;2023-03-01T03:15:17;100347.44;;;-7.14;99.58
75650;BME280;64245;51.282;22.494;2023-03-01T03:17:43;100343.00;;;-7.00;99.29
75650;BME280;64245;51.282;22.494;2023-03-01T03:20:10;100344.75;;;-7.04;99.48
75650;BME280;64245;51.282;22.494;2023-03-01T03:22:38;100334.38;;;-7.14;99.39
75650;BME280;64245;51.282;22.494;2023-03-01T03:25:06;100322.06;;;-7.02;99.78
75650;BME280;64245;51.282;22.494;2023-03-01T03:27:40;100334.25;;;-6.96;99.69
75650;BME280;64245;51.282;22.494;2023-03-01T03:30:09;100332.41;;;-6.86;99.00
75650;BME280;64245;51.282;22.494;2023-03-01T03:32:36;100325.56;;;-7.06;99.34
75650;BME280;64245;51.282;22.494;2023-03-01T03:35:05;100323.69;;;-6.87;99.19
75650;BME280;64245;51.282;22.494;2023-03-01T03:37:41;100330.78;;;-7.04;98.96
75650;BME280;64245;51.282;22.494;2023-03-01T03:40:28;100317.75;;;-7.12;98.92
75650;BME280;64245;51.282;22.494;2023-03-01T03:42:54;100334.28;;;-7.07;99.44
75650;BME280;64245;51.282;22.494;2023-03-01T03:45:20;100335.94;;;-6.92;99.21
75650;BME280;64245;51.282;22.494;2023-03-01T03:47:46;100329.00;;;-6.96;100.00
75650;BME280;64245;51.282;22.494;2023-03-01T03:50:13;100340.25;;;-6.85;99.46
75650;BME280;64245;51.282;22.494;2023-03-01T03:52:39;100342.88;;;-6.83;99.26
75650;BME280;64245;51.282;22.494;2023-03-01T03:55:07;100340.16;;;-6.73;99.22
75650;BME280;64245;51.282;22.494;2023-03-01T03:57:37;100334.91;;;-6.71;98.94
75650;BME280;64245;51.282;22.494;2023-03-01T04:00:05;100320.91;;;-6.64;99.13
75650;BME280;64245;51.282;22.494;2023-03-01T04:02:31;100314.88;;;-6.74;99.44
75650;BME280;64245;51.282;22.494;2023-03-01T04:04:57;100321.81;;;-6.73;99.19
75650;BME280;64245;51.282;22.494;2023-03-01T04:07:22;100305.28;;;-6.76;99.61
75650;BME280;64245;51.282;22.494;2023-03-01T04:09:48;100307.06;;;-6.81;99.43
75650;BME280;64245;51.282;22.494;2023-03-01T04:12:13;100299.13;;;-6.72;99.47
75650;BME280;64245;51.282;22.494;2023-03-01T04:14:40;100298.34;;;-6.82;99.69
75650;BME280;64245;51.282;22.494;2023-03-01T04:17:05;100311.41;;;-6.79;99.86
75650;BME280;64245;51.282;22.494;2023-03-01T04:19:32;100300.06;;;-6.78;99.80
75650;BME280;64245;51.282;22.494;2023-03-01T04:22:02;100289.59;;;-6.81;99.53
75650;BME280;64245;51.282;22.494;2023-03-01T04:24:35;100294.75;;;-6.72;99.38
75650;BME280;64245;51.282;22.494;2023-03-01T04:27:01;100283.34;;;-6.65;100.00
75650;BME280;64245;51.282;22.494;2023-03-01T04:29:27;100297.34;;;-6.67;98.92
75650;BME280;64245;51.282;22.494;2023-03-01T04:31:53;100286.69;;;-6.47;99.80
75650;BME280;64245;51.282;22.494;2023-03-01T04:34:19;100297.03;;;-6.34;99.62
75650;BME280;64245;51.282;22.494;2023-03-01T04:36:45;100295.38;;;-6.44;99.10
75650;BME280;64245;51.282;22.494;2023-03-01T04:39:10;100287.53;;;-6.44;98.84
75650;BME280;64245;51.282;22.494;2023-03-01T04:41:39;100290.13;;;-6.39;99.27
75650;BME280;64245;51.282;22.494;2023-03-01T04:44:06;100272.50;;;-6.28;98.46
75650;BME280;64245;51.282;22.494;2023-03-01T04:46:31;100263.22;;;-6.56;98.34
75650;BME280;64245;51.282;22.494;2023-03-01T04:48:57;100274.41;;;-6.41;99.21
75650;BME280;64245;51.282;22.494;2023-03-01T04:51:23;100275.72;;;-6.02;99.33
75650;BME280;64245;51.282;22.494;2023-03-01T04:53:48;100267.03;;;-6.07;99.32
75650;BME280;64245;51.282;22.494;2023-03-01T04:56:14;100267.19;;;-6.19;98.55
75650;BME280;64245;51.282;22.494;2023-03-01T04:58:40;100273.41;;;-6.29;98.58
75650;BME280;64245;51.282;22.494;2023-03-01T05:01:15;100287.50;;;-6.42;98.96
75650;BME280;64245;51.282;22.494;2023-03-01T05:03:43;100284.72;;;-6.27;99.08
75650;BME280;64245;51.282;22.494;2023-03-01T05:06:09;100282.84;;;-6.14;98.36
75650;BME280;64245;51.282;22.494;2023-03-01T05:08:37;100290.44;;;-5.88;98.85
75650;BME280;64245;51.282;22.494;2023-03-01T05:11:03;100273.81;;;-5.89;98.94
75650;BME280;64245;51.282;22.494;2023-03-01T05:13:28;100272.19;;;-5.98;98.50
75650;BME280;64245;51.282;22.494;2023-03-01T05:15:58;100274.69;;;-5.88;98.20
75650;BME280;64245;51.282;22.494;2023-03-01T05:18:26;100287.00;;;-5.95;98.27
75650;BME280;64245;51.282;22.494;2023-03-01T05:21:00;100278.88;;;-5.77;98.40
75650;BME280;64245;51.282;22.494;2023-03-01T05:23:26;100277.63;;;-5.47;98.10
75650;BME280;64245;51.282;22.494;2023-03-01T05:25:52;100278.75;;;-5.65;96.96
75650;BME280;64245;51.282;22.494;2023-03-01T05:28:19;100268.81;;;-5.41;97.98
75650;BME280;64245;51.282;22.494;2023-03-01T05:30:45;100258.31;;;-5.43;96.84
75650;BME280;64245;51.282;22.494;2023-03-01T05:33:11;100279.06;;;-5.25;97.65
75650;BME280;64245;51.282;22.494;2023-03-01T05:35:41;100263.31;;;-5.25;97.36
75650;BME280;64245;51.282;22.494;2023-03-01T05:38:09;100268.69;;;-5.34;97.13
75650;BME280;64245;51.282;22.494;2023-03-01T05:40:40;100265.03;;;-5.24;97.84
75650;BME280;64245;51.282;22.494;2023-03-01T05:43:05;100278.66;;;-5.00;96.72
75650;BME280;64245;51.282;22.494;2023-03-01T05:45:32;100286.38;;;-4.88;96.77
75650;BME280;64245;51.282;22.494;2023-03-01T05:48:00;100296.75;;;-4.80;95.92
75650;BME280;64245;51.282;22.494;2023-03-01T05:50:28;100295.81;;;-4.76;96.08
75650;BME280;64245;51.282;22.494;2023-03-01T05:55:23;100295.97;;;-4.85;96.03
75650;BME280;64245;51.282;22.494;2023-03-01T05:57:49;100296.88;;;-4.87;96.06
75650;BME280;64245;51.282;22.494;2023-03-01T06:00:17;100305.19;;;-4.62;96.15
75650;BME280;64245;51.282;22.494;2023-03-01T06:02:43;100291.44;;;-4.76;96.07
75650;BME280;64245;51.282;22.494;2023-03-01T06:05:11;100299.25;;;-4.71;96.33
75650;BME280;64245;51.282;22.494;2023-03-01T06:07:37;100303.56;;;-4.67;95.87
75650;BME280;64245;51.282;22.494;2023-03-01T06:10:04;100317.38;;;-4.56;95.78
75650;BME280;64245;51.282;22.494;2023-03-01T06:12:31;100318.22;;;-4.53;95.54
75650;BME280;64245;51.282;22.494;2023-03-01T06:14:57;100318.09;;;-4.45;95.50
75650;BME280;64245;51.282;22.494;2023-03-01T06:17:23;100291.09;;;-4.56;95.83
75650;BME280;64245;51.282;22.494;2023-03-01T06:19:48;100297.09;;;-4.46;94.77
75650;BME280;64245;51.282;22.494;2023-03-01T06:22:14;100300.31;;;-4.31;95.85
75650;BME280;64245;51.282;22.494;2023-03-01T06:24:39;100321.00;;;-4.12;94.40
75650;BME280;64245;51.282;22.494;2023-03-01T06:27:05;100312.91;;;-4.02;93.92
75650;BME280;64245;51.282;22.494;2023-03-01T06:29:31;100299.00;;;-4.07;94.11
75650;BME280;64245;51.282;22.494;2023-03-01T06:31:56;100297.81;;;-3.92;93.55
75650;BME280;64245;51.282;22.494;2023-03-01T06:34:22;100302.19;;;-3.91;94.30
75650;BME280;64245;51.282;22.494;2023-03-01T06:36:47;100287.38;;;-3.97;94.27
75650;BME280;64245;51.282;22.494;2023-03-01T06:39:13;100295.72;;;-3.75;93.30
75650;BME280;64245;51.282;22.494;2023-03-01T06:41:38;100295.75;;;-3.76;92.59
75650;BME280;64245;51.282;22.494;2023-03-01T06:44:04;100283.19;;;-3.64;92.38
75650;BME280;64245;51.282;22.494;2023-03-01T06:46:30;100286.56;;;-3.56;92.63
75650;BME280;64245;51.282;22.494;2023-03-01T06:48:56;100288.16;;;-3.49;92.47
75650;BME280;64245;51.282;22.494;2023-03-01T06:51:21;100288.53;;;-3.27;91.38
75650;BME280;64245;51.282;22.494;2023-03-01T06:53:47;100290.09;;;-3.17;90.96
75650;BME280;64245;51.282;22.494;2023-03-01T06:56:12;100287.47;;;-3.18;90.72
75650;BME280;64245;51.282;22.494;2023-03-01T06:58:38;100296.97;;;-3.09;89.97
75650;BME280;64245;51.282;22.494;2023-03-01T07:01:08;100303.72;;;-2.98;90.34
75650;BME280;64245;51.282;22.494;2023-03-01T07:03:34;100298.38;;;-2.95;90.78
75650;BME280;64245;51.282;22.494;2023-03-01T07:05:59;100302.69;;;-2.91;90.17
75650;BME280;64245;51.282;22.494;2023-03-01T07:08:25;100297.19;;;-2.83;90.88
75650;BME280;64245;51.282;22.494;2023-03-01T07:10:58;100299.53;;;-2.69;90.00
75650;BME280;64245;51.282;22.494;2023-03-01T07:13:24;100293.13;;;-2.59;89.15
75650;BME280;64245;51.282;22.494;2023-03-01T07:15:49;100284.34;;;-2.60;89.65
75650;BME280;64245;51.282;22.494;2023-03-01T07:18:15;100279.94;;;-2.59;89.40
75650;BME280;64245;51.282;22.494;2023-03-01T07:20:40;100262.91;;;-2.48;87.62
75650;BME280;64245;51.282;22.494;2023-03-01T07:23:06;100282.00;;;-2.36;88.45
75650;BME280;64245;51.282;22.494;2023-03-01T07:25:32;100296.59;;;-2.23;88.69
75650;BME280;64245;51.282;22.494;2023-03-01T07:27:58;100285.19;;;-2.25;88.02
75650;BME280;64245;51.282;22.494;2023-03-01T07:30:24;100268.25;;;-2.15;87.08
75650;BME280;64245;51.282;22.494;2023-03-01T07:32:52;100283.53;;;-1.95;87.53
75650;BME280;64245;51.282;22.494;2023-03-01T07:35:18;100276.53;;;-1.96;86.35
75650;BME280;64245;51.282;22.494;2023-03-01T07:37:44;100277.97;;;-1.86;86.75
75650;BME280;64245;51.282;22.494;2023-03-01T07:40:10;100287.44;;;-1.78;87.13
75650;BME280;64245;51.282;22.494;2023-03-01T07:42:36;100295.75;;;-1.60;86.21
75650;BME280;64245;51.282;22.494;2023-03-01T07:45:03;100281.41;;;-1.53;85.83
75650;BME280;64245;51.282;22.494;2023-03-01T07:47:29;100293.59;;;-1.48;85.93
75650;BME280;64245;51.282;22.494;2023-03-01T07:49:57;100296.06;;;-1.42;85.51
75650;BME280;64245;51.282;22.494;2023-03-01T07:52:23;100297.50;;;-1.31;84.08
75650;BME280;64245;51.282;22.494;2023-03-01T07:54:49;100289.78;;;-1.37;83.11
75650;BME280;64245;51.282;22.494;2023-03-01T07:57:15;100300.13;;;-1.30;82.37
75650;BME280;64245;51.282;22.494;2023-03-01T07:59:40;100296.91;;;-1.12;82.55
75650;BME280;64245;51.282;22.494;2023-03-01T08:02:07;100296.81;;;-1.09;81.88
75650;BME280;64245;51.282;22.494;2023-03-01T08:04:33;100302.84;;;-1.03;83.00
75650;BME280;64245;51.282;22.494;2023-03-01T08:06:58;100296.34;;;-0.93;81.54
75650;BME280;64245;51.282;22.494;2023-03-01T08:09:24;100298.41;;;-0.75;81.92
75650;BME280;64245;51.282;22.494;2023-03-01T08:11:50;100281.78;;;-0.79;81.36
75650;BME280;64245;51.282;22.494;2023-03-01T08:14:16;100293.06;;;-0.74;82.14
75650;BME280;64245;51.282;22.494;2023-03-01T08:16:41;100272.22;;;-0.56;81.41
75650;BME280;64245;51.282;22.494;2023-03-01T08:19:11;100282.47;;;-0.46;80.47
75650;BME280;64245;51.282;22.494;2023-03-01T08:21:37;100285.69;;;-0.38;79.33
75650;BME280;64245;51.282;22.494;2023-03-01T08:24:05;100268.69;;;-0.30;78.39
75650;BME280;64245;51.282;22.494;2023-03-01T08:26:32;100268.91;;;-0.37;77.67
75650;BME280;64245;51.282;22.494;2023-03-01T08:28:59;100272.41;;;-0.36;76.99
75650;BME280;64245;51.282;22.494;2023-03-01T08:31:29;100288.66;;;-0.20;76.93
75650;BME280;64245;51.282;22.494;2023-03-01T08:33:58;100275.13;;;-0.13;77.55
75650;BME280;64245;51.282;22.494;2023-03-01T08:36:33;100280.03;;;-0.01;75.43
75650;BME280;64245;51.282;22.494;2023-03-01T08:39:00;100284.06;;;0.10;75.73
75650;BME280;64245;51.282;22.494;2023-03-01T08:41:26;100290.88;;;0.17;75.65
75650;BME280;64245;51.282;22.494;2023-03-01T08:43:53;100289.03;;;0.19;75.74
75650;BME280;64245;51.282;22.494;2023-03-01T08:46:37;100281.56;;;0.30;74.92
75650;BME280;64245;51.282;22.494;2023-03-01T08:49:08;100284.09;;;0.33;74.59
75650;BME280;64245;51.282;22.494;2023-03-01T08:51:34;100281.56;;;0.30;74.49
75650;BME280;64245;51.282;22.494;2023-03-01T08:54:07;100300.06;;;0.55;75.13
75650;BME280;64245;51.282;22.494;2023-03-01T08:56:33;100295.50;;;0.58;73.46
75650;BME280;64245;51.282;22.494;2023-03-01T08:58:59;100303.34;;;0.61;74.14
75650;BME280;64245;51.282;22.494;2023-03-01T09:01:25;100289.53;;;0.53;73.65
75650;BME280;64245;51.282;22.494;2023-03-01T09:03:51;100297.13;;;0.62;73.79
75650;BME280;64245;51.282;22.494;2023-03-01T09:06:17;100290.56;;;0.73;73.56
75650;BME280;64245;51.282;22.494;2023-03-01T09:08:45;100297.41;;;0.78;72.92
75650;BME280;64245;51.282;22.494;2023-03-01T09:11:13;100294.53;;;0.84;73.38
75650;BME280;64245;51.282;22.494;2023-03-01T09:13:40;100272.97;;;0.93;72.98
75650;BME280;64245;51.282;22.494;2023-03-01T09:16:07;100286.56;;;0.84;72.50
75650;BME280;64245;51.282;22.494;2023-03-01T09:18:33;100299.81;;;1.08;72.59
75650;BME280;64245;51.282;22.494;2023-03-01T09:21:07;100279.56;;;1.27;72.16
75650;BME280;64245;51.282;22.494;2023-03-01T09:23:35;100266.34;;;1.03;71.78
75650;BME280;64245;51.282;22.494;2023-03-01T09:26:02;100267.00;;;1.10;71.21
75650;BME280;64245;51.282;22.494;2023-03-01T09:28:28;100283.16;;;1.26;69.56
75650;BME280;64245;51.282;22.494;2023-03-01T09:30:58;100273.69;;;1.41;69.88
75650;BME280;64245;51.282;22.494;2023-03-01T09:33:24;100270.47;;;1.54;70.22
75650;BME280;64245;51.282;22.494;2023-03-01T09:35:59;100272.44;;;1.71;69.26
75650;BME280;64245;51.282;22.494;2023-03-01T09:38:25;100274.66;;;1.60;68.11
75650;BME280;64245;51.282;22.494;2023-03-01T09:40:51;100267.44;;;1.63;68.82
75650;BME280;64245;51.282;22.494;2023-03-01T09:45:59;100263.63;;;1.91;67.36
75650;BME280;64245;51.282;22.494;2023-03-01T09:48:27;100276.41;;;2.01;67.67
75650;BME280;64245;51.282;22.494;2023-03-01T09:50:56;100280.41;;;1.91;67.40
75650;BME280;64245;51.282;22.494;2023-03-01T09:53:28;100250.53;;;1.86;67.46
75650;BME280;64245;51.282;22.494;2023-03-01T09:58:56;100262.16;;;2.04;66.87
75650;BME280;64245;51.282;22.494;2023-03-01T10:01:32;100273.13;;;2.35;70.03
75650;BME280;64245;51.282;22.494;2023-03-01T10:04:27;100268.38;;;2.23;67.13
75650;BME280;64245;51.282;22.494;2023-03-01T10:09:42;100250.41;;;2.10;66.25
75650;BME280;64245;51.282;22.494;2023-03-01T10:12:12;100254.16;;;2.24;67.71
75650;BME280;64245;51.282;22.494;2023-03-01T10:14:55;100245.25;;;2.25;66.10
75650;BME280;64245;51.282;22.494;2023-03-01T10:22:41;100249.28;;;2.53;66.02
75650;BME280;64245;51.282;22.494;2023-03-01T10:25:12;100235.59;;;2.81;64.26
75650;BME280;64245;51.282;22.494;2023-03-01T10:27:53;100236.84;;;2.91;63.20
75650;BME280;64245;51.282;22.494;2023-03-01T10:30:39;100244.06;;;2.89;63.06
75650;BME280;64245;51.282;22.494;2023-03-01T10:35:51;100218.09;;;3.47;61.42
75650;BME280;64245;51.282;22.494;2023-03-01T10:38:19;100229.16;;;3.91;62.53
75650;BME280;64245;51.282;22.494;2023-03-01T10:40:57;100215.38;;;4.00;57.69
75650;BME280;64245;51.282;22.494;2023-03-01T10:43:25;100222.03;;;4.42;57.17
75650;BME280;64245;51.282;22.494;2023-03-01T10:45:51;100223.44;;;5.12;56.11
75650;BME280;64245;51.282;22.494;2023-03-01T10:48:23;100216.81;;;4.72;56.62
75650;BME280;64245;51.282;22.494;2023-03-01T10:53:36;100206.09;;;5.65;52.09
75650;BME280;64245;51.282;22.494;2023-03-01T10:56:08;100193.69;;;5.64;49.83
75650;BME280;64245;51.282;22.494;2023-03-01T10:58:37;100214.34;;;5.46;51.37
75650;BME280;64245;51.282;22.494;2023-03-01T11:01:04;100209.00;;;5.46;53.16
75650;BME280;64245;51.282;22.494;2023-03-01T11:03:36;100180.75;;;4.80;51.44
75650;BME280;64245;51.282;22.494;2023-03-01T11:08:45;100188.38;;;7.06;47.53
75650;BME280;64245;51.282;22.494;2023-03-01T11:13:54;100195.59;;;6.77;50.32
75650;BME280;64245;51.282;22.494;2023-03-01T11:18:58;100201.38;;;6.14;50.39
75650;BME280;64245;51.282;22.494;2023-03-01T11:21:25;100185.44;;;5.82;52.31
75650;BME280;64245;51.282;22.494;2023-03-01T11:23:53;100179.63;;;7.56;48.99
75650;BME280;64245;51.282;22.494;2023-03-01T11:26:19;100165.84;;;7.35;46.95
75650;BME280;64245;51.282;22.494;2023-03-01T11:28:50;100186.50;;;6.79;49.68
75650;BME280;64245;51.282;22.494;2023-03-01T11:31:18;100179.28;;;6.67;48.05
75650;BME280;64245;51.282;22.494;2023-03-01T11:33:59;100166.06;;;8.48;45.08
75650;BME280;64245;51.282;22.494;2023-03-01T11:36:35;100166.28;;;8.19;44.75
75650;BME280;64245;51.282;22.494;2023-03-01T11:39:22;100181.09;;;8.25;46.49
75650;BME280;64245;51.282;22.494;2023-03-01T11:41:53;100192.34;;;8.30;44.18
75650;BME280;64245;51.282;22.494;2023-03-01T11:44:28;100158.03;;;8.22;44.06
75650;BME280;64245;51.282;22.494;2023-03-01T11:50:01;100188.59;;;7.94;46.29
75650;BME280;64245;51.282;22.494;2023-03-01T11:55:41;100184.13;;;8.08;45.94
75650;BME280;64245;51.282;22.494;2023-03-01T11:58:27;100163.59;;;7.81;45.95
75650;BME280;64245;51.282;22.494;2023-03-01T12:06:32;100168.00;;;7.95;46.97
75650;BME280;64245;51.282;22.494;2023-03-01T12:12:29;100178.47;;;7.60;46.48
75650;BME280;64245;51.282;22.494;2023-03-01T12:17:57;100180.06;;;7.50;46.56
75650;BME280;64245;51.282;22.494;2023-03-01T12:20:38;100174.28;;;8.70;46.13
75650;BME280;64245;51.282;22.494;2023-03-01T12:23:25;100164.88;;;8.64;44.69
75650;BME280;64245;51.282;22.494;2023-03-01T12:26:16;100157.53;;;9.27;42.61
75650;BME280;64245;51.282;22.494;2023-03-01T12:37:38;100154.06;;;10.52;40.60
75650;BME280;64245;51.282;22.494;2023-03-01T12:45:44;100153.59;;;9.90;41.64
75650;BME280;64245;51.282;22.494;2023-03-01T12:48:36;100152.88;;;9.88;41.15
75650;BME280;64245;51.282;22.494;2023-03-01T12:51:10;100136.91;;;10.42;40.70
75650;BME280;64245;51.282;22.494;2023-03-01T12:53:47;100126.97;;;9.17;43.15
75650;BME280;64245;51.282;22.494;2023-03-01T12:56:25;100130.06;;;9.23;41.56
75650;BME280;64245;51.282;22.494;2023-03-01T13:04:32;100137.06;;;9.37;41.99
75650;BME280;64245;51.282;22.494;2023-03-01T13:20:52;100127.97;;;8.17;45.22
75650;BME280;64245;51.282;22.494;2023-03-01T13:28:39;100142.34;;;8.16;46.29
75650;BME280;64245;51.282;22.494;2023-03-01T13:31:11;100117.72;;;8.60;44.36
75650;BME280;64245;51.282;22.494;2023-03-01T13:34:00;100121.13;;;7.88;45.48
75650;BME280;64245;51.282;22.494;2023-03-01T13:38:56;100136.16;;;7.25;48.10
75650;BME280;64245;51.282;22.494;2023-03-01T13:47:16;100128.84;;;7.67;48.01
75650;BME280;64245;51.282;22.494;2023-03-01T13:49:53;100117.19;;;6.48;49.72
75650;BME280;64245;51.282;22.494;2023-03-01T13:52:36;100124.50;;;7.12;50.07
75650;BME280;64245;51.282;22.494;2023-03-01T13:55:05;100119.97;;;7.27;49.50
75650;BME280;64245;51.282;22.494;2023-03-01T13:57:36;100121.84;;;7.65;50.08
75650;BME280;64245;51.282;22.494;2023-03-01T14:00:05;100117.56;;;7.49;49.46
75650;BME280;64245;51.282;22.494;2023-03-01T14:02:31;100104.78;;;7.40;48.58
75650;BME280;64245;51.282;22.494;2023-03-01T14:04:59;100105.78;;;7.77;48.33
75650;BME280;64245;51.282;22.494;2023-03-01T14:07:25;100101.06;;;7.68;48.85
75650;BME280;64245;51.282;22.494;2023-03-01T14:09:58;100083.78;;;7.59;48.14
75650;BME280;64245;51.282;22.494;2023-03-01T14:12:39;100099.88;;;7.07;50.53
75650;BME280;64245;51.282;22.494;2023-03-01T14:15:32;100109.50;;;6.70;52.79
75650;BME280;64245;51.282;22.494;2023-03-01T14:20:39;100102.56;;;6.39;53.13
75650;BME280;64245;51.282;22.494;2023-03-01T14:23:12;100092.91;;;6.51;53.18
75650;BME280;64245;51.282;22.494;2023-03-01T14:25:46;100086.16;;;6.72;52.00
75650;BME280;64245;51.282;22.494;2023-03-01T14:28:21;100103.59;;;5.80;54.58
75650;BME280;64245;51.282;22.494;2023-03-01T14:30:50;100087.22;;;5.72;55.07